Chase, Canada
Current Conditions -  °F | °C
As of 3:00 AM on Saturday 20 Dec 2014 (Local Time) from CYKA Reporting Station
Overcast Overcast  
Wind Chill: 30°   Ceiling: 14000
Heat Index: 37°   Visibility: 40mi
Dew Point: 32°   Wind: 12mph
Humidity: 81%   Direction: 100°E
Pressure: 29.82"   Gusts: NA
Location:  50.82°N, 119.68°W
Report Text: CYKA 201100Z 10010KT 40SM BKN140 OVC230 03/00 A2982 RMK AC6CI2 SLP108
Loading
Personal Weather Stations






























Interactive Weather Map New forecast layout! Learn more

10-Day Weather Forecast

Advertisements
Track Severe Weather on mobile